sensor_id;sensor_type;location;lat;lon;timestamp;P1;durP1;ratioP1;P2;durP2;ratioP2
13250;SDS011;6692;50.710;7.180;2023-12-29T00:01:33;1.77;;;1.67;;
13250;SDS011;6692;50.710;7.180;2023-12-29T00:03:35;4.40;;;2.00;;
13250;SDS011;6692;50.710;7.180;2023-12-29T00:05:35;1.80;;;1.70;;
13250;SDS011;6692;50.710;7.180;2023-12-29T00:07:36;1.83;;;1.63;;
13250;SDS011;6692;50.710;7.180;2023-12-29T00:09:36;2.10;;;1.90;;
13250;SDS011;6692;50.710;7.180;2023-12-29T00:11:40;2.10;;;1.90;;
13250;SDS011;6692;50.710;7.180;2023-12-29T00:13:41;2.93;;;1.67;;
13250;SDS011;6692;50.710;7.180;2023-12-29T00:15:42;2.23;;;1.90;;
13250;SDS011;6692;50.710;7.180;2023-12-29T00:17:44;2.00;;;1.80;;
13250;SDS011;6692;50.710;7.180;2023-12-29T00:19:45;3.30;;;2.00;;
13250;SDS011;6692;50.710;7.180;2023-12-29T00:21:47;2.13;;;1.77;;
13250;SDS011;6692;50.710;7.180;2023-12-29T00:23:47;2.70;;;1.90;;
13250;SDS011;6692;50.710;7.180;2023-12-29T00:25:48;2.10;;;1.90;;
13250;SDS011;6692;50.710;7.180;2023-12-29T00:27:49;2.33;;;1.73;;
13250;SDS011;6692;50.710;7.180;2023-12-29T00:29:50;1.87;;;1.77;;
13250;SDS011;6692;50.710;7.180;2023-12-29T00:31:51;3.07;;;1.87;;
13250;SDS011;6692;50.710;7.180;2023-12-29T00:33:52;2.33;;;1.90;;
13250;SDS011;6692;50.710;7.180;2023-12-29T00:35:53;2.47;;;2.07;;
13250;SDS011;6692;50.710;7.180;2023-12-29T00:37:54;4.97;;;2.00;;
13250;SDS011;6692;50.710;7.180;2023-12-29T00:39:55;2.50;;;1.93;;
13250;SDS011;6692;50.710;7.180;2023-12-29T00:41:56;2.90;;;2.30;;
13250;SDS011;6692;50.710;7.180;2023-12-29T00:43:56;2.37;;;2.00;;
13250;SDS011;6692;50.710;7.180;2023-12-29T00:45:57;2.07;;;1.87;;
13250;SDS011;6692;50.710;7.180;2023-12-29T00:47:58;2.43;;;2.03;;
13250;SDS011;6692;50.710;7.180;2023-12-29T00:50:00;2.43;;;2.20;;
13250;SDS011;6692;50.710;7.180;2023-12-29T00:52:01;2.50;;;2.20;;
13250;SDS011;6692;50.710;7.180;2023-12-29T00:54:02;2.43;;;1.90;;
13250;SDS011;6692;50.710;7.180;2023-12-29T00:56:03;4.50;;;2.60;;
13250;SDS011;6692;50.710;7.180;2023-12-29T00:58:04;3.20;;;2.30;;
13250;SDS011;6692;50.710;7.180;2023-12-29T01:00:07;2.60;;;2.30;;
13250;SDS011;6692;50.710;7.180;2023-12-29T01:02:07;2.27;;;2.07;;
13250;SDS011;6692;50.710;7.180;2023-12-29T01:04:08;2.30;;;2.10;;
13250;SDS011;6692;50.710;7.180;2023-12-29T01:06:09;3.53;;;2.30;;
13250;SDS011;6692;50.710;7.180;2023-12-29T01:08:10;3.03;;;2.27;;
13250;SDS011;6692;50.710;7.180;2023-12-29T01:10:10;5.63;;;2.50;;
13250;SDS011;6692;50.710;7.180;2023-12-29T01:12:11;3.60;;;2.37;;
13250;SDS011;6692;50.710;7.180;2023-12-29T01:14:12;5.70;;;2.50;;
13250;SDS011;6692;50.710;7.180;2023-12-29T01:16:13;2.87;;;2.23;;
13250;SDS011;6692;50.710;7.180;2023-12-29T01:18:14;4.40;;;2.47;;
13250;SDS011;6692;50.710;7.180;2023-12-29T01:20:15;4.33;;;2.43;;
13250;SDS011;6692;50.710;7.180;2023-12-29T01:22:16;3.10;;;2.37;;
13250;SDS011;6692;50.710;7.180;2023-12-29T01:24:17;2.33;;;2.13;;
13250;SDS011;6692;50.710;7.180;2023-12-29T01:26:18;3.63;;;2.40;;
13250;SDS011;6692;50.710;7.180;2023-12-29T01:28:18;2.63;;;2.23;;
13250;SDS011;6692;50.710;7.180;2023-12-29T01:30:20;3.00;;;2.20;;
13250;SDS011;6692;50.710;7.180;2023-12-29T01:32:21;3.53;;;2.37;;
13250;SDS011;6692;50.710;7.180;2023-12-29T01:34:22;4.27;;;2.30;;
13250;SDS011;6692;50.710;7.180;2023-12-29T01:36:22;2.93;;;1.87;;
13250;SDS011;6692;50.710;7.180;2023-12-29T01:38:23;7.23;;;2.73;;
13250;SDS011;6692;50.710;7.180;2023-12-29T01:40:24;2.40;;;2.20;;
13250;SDS011;6692;50.710;7.180;2023-12-29T01:42:24;4.17;;;2.27;;
13250;SDS011;6692;50.710;7.180;2023-12-29T01:44:25;3.80;;;2.40;;
13250;SDS011;6692;50.710;7.180;2023-12-29T01:46:27;2.73;;;2.10;;
13250;SDS011;6692;50.710;7.180;2023-12-29T01:48:27;3.73;;;2.67;;
13250;SDS011;6692;50.710;7.180;2023-12-29T01:50:27;5.47;;;2.33;;
13250;SDS011;6692;50.710;7.180;2023-12-29T01:52:28;3.63;;;2.30;;
13250;SDS011;6692;50.710;7.180;2023-12-29T01:54:31;4.03;;;2.20;;
13250;SDS011;6692;50.710;7.180;2023-12-29T01:56:30;2.90;;;2.30;;
13250;SDS011;6692;50.710;7.180;2023-12-29T01:58:30;3.17;;;2.20;;
13250;SDS011;6692;50.710;7.180;2023-12-29T02:00:32;3.80;;;2.60;;
13250;SDS011;6692;50.710;7.180;2023-12-29T02:02:33;4.43;;;2.40;;
13250;SDS011;6692;50.710;7.180;2023-12-29T02:04:34;3.03;;;2.20;;
13250;SDS011;6692;50.710;7.180;2023-12-29T02:06:34;2.47;;;2.20;;
13250;SDS011;6692;50.710;7.180;2023-12-29T02:08:36;3.27;;;2.17;;
13250;SDS011;6692;50.710;7.180;2023-12-29T02:10:37;6.50;;;2.40;;
13250;SDS011;6692;50.710;7.180;2023-12-29T02:12:38;3.83;;;2.27;;
13250;SDS011;6692;50.710;7.180;2023-12-29T02:14:38;4.07;;;2.53;;
13250;SDS011;6692;50.710;7.180;2023-12-29T02:18:57;5.33;;;2.50;;
13250;SDS011;6692;50.710;7.180;2023-12-29T02:20:57;5.27;;;2.10;;
13250;SDS011;6692;50.710;7.180;2023-12-29T02:22:58;3.27;;;2.03;;
13250;SDS011;6692;50.710;7.180;2023-12-29T02:24:59;4.37;;;2.53;;
13250;SDS011;6692;50.710;7.180;2023-12-29T02:27:07;4.73;;;2.27;;
13250;SDS011;6692;50.710;7.180;2023-12-29T02:29:05;4.30;;;2.57;;
13250;SDS011;6692;50.710;7.180;2023-12-29T02:31:09;7.07;;;2.60;;
13250;SDS011;6692;50.710;7.180;2023-12-29T02:33:10;6.40;;;2.20;;
13250;SDS011;6692;50.710;7.180;2023-12-29T02:35:10;3.93;;;2.17;;
13250;SDS011;6692;50.710;7.180;2023-12-29T02:37:10;4.93;;;2.00;;
13250;SDS011;6692;50.710;7.180;2023-12-29T02:39:11;3.87;;;2.20;;
13250;SDS011;6692;50.710;7.180;2023-12-29T02:41:12;3.53;;;2.20;;
13250;SDS011;6692;50.710;7.180;2023-12-29T02:43:15;3.20;;;2.10;;
13250;SDS011;6692;50.710;7.180;2023-12-29T02:45:16;6.33;;;2.20;;
13250;SDS011;6692;50.710;7.180;2023-12-29T02:47:16;3.73;;;2.20;;
13250;SDS011;6692;50.710;7.180;2023-12-29T02:49:17;5.27;;;2.43;;
13250;SDS011;6692;50.710;7.180;2023-12-29T02:51:18;3.83;;;2.20;;
13250;SDS011;6692;50.710;7.180;2023-12-29T02:53:18;4.60;;;2.10;;
13250;SDS011;6692;50.710;7.180;2023-12-29T02:55:19;3.97;;;2.70;;
13250;SDS011;6692;50.710;7.180;2023-12-29T02:57:21;6.77;;;2.40;;
13250;SDS011;6692;50.710;7.180;2023-12-29T02:59:22;5.87;;;2.50;;
13250;SDS011;6692;50.710;7.180;2023-12-29T03:01:22;5.13;;;2.40;;
13250;SDS011;6692;50.710;7.180;2023-12-29T03:03:24;4.20;;;2.23;;
13250;SDS011;6692;50.710;7.180;2023-12-29T03:05:25;3.77;;;2.30;;
13250;SDS011;6692;50.710;7.180;2023-12-29T03:07:25;4.53;;;2.73;;
13250;SDS011;6692;50.710;7.180;2023-12-29T03:09:26;4.13;;;1.87;;
13250;SDS011;6692;50.710;7.180;2023-12-29T03:11:27;4.20;;;2.00;;
13250;SDS011;6692;50.710;7.180;2023-12-29T03:13:28;2.90;;;2.23;;
13250;SDS011;6692;50.710;7.180;2023-12-29T03:15:29;6.50;;;2.50;;
13250;SDS011;6692;50.710;7.180;2023-12-29T03:17:30;4.67;;;2.30;;
13250;SDS011;6692;50.710;7.180;2023-12-29T03:19:30;3.30;;;2.13;;
13250;SDS011;6692;50.710;7.180;2023-12-29T03:21:32;4.23;;;2.20;;
13250;SDS011;6692;50.710;7.180;2023-12-29T03:23:33;5.43;;;3.00;;
13250;SDS011;6692;50.710;7.180;2023-12-29T03:25:34;3.73;;;2.20;;
13250;SDS011;6692;50.710;7.180;2023-12-29T03:27:35;3.43;;;2.10;;
13250;SDS011;6692;50.710;7.180;2023-12-29T03:29:36;4.13;;;2.10;;
13250;SDS011;6692;50.710;7.180;2023-12-29T03:31:36;6.90;;;2.57;;
13250;SDS011;6692;50.710;7.180;2023-12-29T03:33:37;4.57;;;2.17;;
13250;SDS011;6692;50.710;7.180;2023-12-29T03:35:38;7.60;;;2.43;;
13250;SDS011;6692;50.710;7.180;2023-12-29T03:37:39;4.47;;;1.93;;
13250;SDS011;6692;50.710;7.180;2023-12-29T03:39:39;7.43;;;2.40;;
13250;SDS011;6692;50.710;7.180;2023-12-29T03:41:40;3.00;;;1.80;;
13250;SDS011;6692;50.710;7.180;2023-12-29T03:43:41;4.73;;;2.40;;
13250;SDS011;6692;50.710;7.180;2023-12-29T03:45:42;5.10;;;2.20;;
13250;SDS011;6692;50.710;7.180;2023-12-29T03:47:43;4.97;;;2.30;;
13250;SDS011;6692;50.710;7.180;2023-12-29T03:49:44;4.60;;;2.00;;
13250;SDS011;6692;50.710;7.180;2023-12-29T03:51:45;5.13;;;2.20;;
13250;SDS011;6692;50.710;7.180;2023-12-29T03:53:47;4.67;;;2.10;;
13250;SDS011;6692;50.710;7.180;2023-12-29T03:55:48;4.37;;;2.20;;
13250;SDS011;6692;50.710;7.180;2023-12-29T03:57:48;2.37;;;2.10;;
13250;SDS011;6692;50.710;7.180;2023-12-29T03:59:49;2.67;;;2.27;;
13250;SDS011;6692;50.710;7.180;2023-12-29T04:01:50;3.93;;;2.00;;
13250;SDS011;6692;50.710;7.180;2023-12-29T04:03:51;5.80;;;2.10;;
13250;SDS011;6692;50.710;7.180;2023-12-29T04:05:52;5.83;;;2.20;;
13250;SDS011;6692;50.710;7.180;2023-12-29T04:07:53;3.20;;;2.07;;
13250;SDS011;6692;50.710;7.180;2023-12-29T04:09:54;4.23;;;2.50;;
13250;SDS011;6692;50.710;7.180;2023-12-29T04:11:54;3.47;;;2.10;;
13250;SDS011;6692;50.710;7.180;2023-12-29T04:13:56;5.30;;;2.13;;
13250;SDS011;6692;50.710;7.180;2023-12-29T04:15:57;4.40;;;2.10;;
13250;SDS011;6692;50.710;7.180;2023-12-29T04:17:57;4.83;;;2.50;;
13250;SDS011;6692;50.710;7.180;2023-12-29T04:19:58;5.60;;;2.20;;
13250;SDS011;6692;50.710;7.180;2023-12-29T04:21:59;2.70;;;2.13;;
13250;SDS011;6692;50.710;7.180;2023-12-29T04:24:00;4.93;;;2.27;;
13250;SDS011;6692;50.710;7.180;2023-12-29T04:26:01;4.60;;;2.07;;
13250;SDS011;6692;50.710;7.180;2023-12-29T04:28:01;6.10;;;2.30;;
13250;SDS011;6692;50.710;7.180;2023-12-29T04:30:03;5.87;;;2.00;;
13250;SDS011;6692;50.710;7.180;2023-12-29T04:32:04;6.10;;;2.13;;
13250;SDS011;6692;50.710;7.180;2023-12-29T04:34:06;3.33;;;2.10;;
13250;SDS011;6692;50.710;7.180;2023-12-29T04:36:07;4.57;;;2.00;;
13250;SDS011;6692;50.710;7.180;2023-12-29T04:38:08;4.03;;;2.07;;
13250;SDS011;6692;50.710;7.180;2023-12-29T04:40:11;3.93;;;1.83;;
13250;SDS011;6692;50.710;7.180;2023-12-29T04:42:11;6.60;;;2.10;;
13250;SDS011;6692;50.710;7.180;2023-12-29T04:44:12;3.33;;;2.00;;
13250;SDS011;6692;50.710;7.180;2023-12-29T04:46:13;2.87;;;2.10;;
13250;SDS011;6692;50.710;7.180;2023-12-29T04:48:14;3.33;;;2.00;;
13250;SDS011;6692;50.710;7.180;2023-12-29T04:50:15;4.37;;;2.30;;
13250;SDS011;6692;50.710;7.180;2023-12-29T04:52:16;2.63;;;2.23;;
13250;SDS011;6692;50.710;7.180;2023-12-29T04:54:17;4.40;;;2.13;;
13250;SDS011;6692;50.710;7.180;2023-12-29T04:56:18;3.97;;;2.30;;
13250;SDS011;6692;50.710;7.180;2023-12-29T04:58:19;4.50;;;1.80;;
13250;SDS011;6692;50.710;7.180;2023-12-29T05:00:20;3.33;;;1.80;;
13250;SDS011;6692;50.710;7.180;2023-12-29T05:02:21;3.67;;;1.90;;
13250;SDS011;6692;50.710;7.180;2023-12-29T05:04:21;4.10;;;2.30;;
13250;SDS011;6692;50.710;7.180;2023-12-29T05:06:22;3.63;;;1.77;;
13250;SDS011;6692;50.710;7.180;2023-12-29T05:08:23;5.60;;;2.10;;
13250;SDS011;6692;50.710;7.180;2023-12-29T05:10:23;4.63;;;2.10;;
13250;SDS011;6692;50.710;7.180;2023-12-29T05:12:25;3.50;;;2.20;;
13250;SDS011;6692;50.710;7.180;2023-12-29T05:14:26;4.23;;;2.17;;
13250;SDS011;6692;50.710;7.180;2023-12-29T05:16:27;6.60;;;2.03;;
13250;SDS011;6692;50.710;7.180;2023-12-29T05:18:29;5.33;;;1.90;;
13250;SDS011;6692;50.710;7.180;2023-12-29T05:20:30;4.83;;;2.03;;
13250;SDS011;6692;50.710;7.180;2023-12-29T05:22:30;5.50;;;2.37;;
13250;SDS011;6692;50.710;7.180;2023-12-29T05:24:31;4.17;;;1.83;;
13250;SDS011;6692;50.710;7.180;2023-12-29T05:26:32;4.60;;;1.73;;
13250;SDS011;6692;50.710;7.180;2023-12-29T05:28:33;3.37;;;2.13;;
13250;SDS011;6692;50.710;7.180;2023-12-29T05:30:33;4.77;;;1.90;;
13250;SDS011;6692;50.710;7.180;2023-12-29T05:32:35;2.60;;;1.97;;
13250;SDS011;6692;50.710;7.180;2023-12-29T05:34:36;4.57;;;2.03;;
13250;SDS011;6692;50.710;7.180;2023-12-29T05:36:37;5.13;;;1.93;;
13250;SDS011;6692;50.710;7.180;2023-12-29T05:38:38;4.40;;;2.00;;
13250;SDS011;6692;50.710;7.180;2023-12-29T05:40:39;3.03;;;1.93;;
13250;SDS011;6692;50.710;7.180;2023-12-29T05:42:40;4.27;;;1.87;;
13250;SDS011;6692;50.710;7.180;2023-12-29T05:44:41;2.77;;;1.90;;
13250;SDS011;6692;50.710;7.180;2023-12-29T05:46:45;4.30;;;1.70;;
13250;SDS011;6692;50.710;7.180;2023-12-29T05:48:43;3.47;;;2.07;;
13250;SDS011;6692;50.710;7.180;2023-12-29T05:50:43;2.27;;;1.70;;
13250;SDS011;6692;50.710;7.180;2023-12-29T05:52:44;4.27;;;1.83;;
13250;SDS011;6692;50.710;7.180;2023-12-29T05:54:45;1.90;;;1.80;;
13250;SDS011;6692;50.710;7.180;2023-12-29T05:56:46;2.63;;;1.87;;
13250;SDS011;6692;50.710;7.180;2023-12-29T05:58:47;1.80;;;1.70;;
13250;SDS011;6692;50.710;7.180;2023-12-29T06:00:48;1.83;;;1.60;;
13250;SDS011;6692;50.710;7.180;2023-12-29T06:02:49;3.13;;;1.80;;
13250;SDS011;6692;50.710;7.180;2023-12-29T06:04:49;3.00;;;1.47;;
13250;SDS011;6692;50.710;7.180;2023-12-29T06:06:51;3.30;;;1.80;;
13250;SDS011;6692;50.710;7.180;2023-12-29T06:08:52;2.60;;;1.83;;
13250;SDS011;6692;50.710;7.180;2023-12-29T06:10:52;3.53;;;1.83;;
13250;SDS011;6692;50.710;7.180;2023-12-29T06:12:53;3.57;;;2.13;;
13250;SDS011;6692;50.710;7.180;2023-12-29T06:14:54;1.73;;;1.50;;
13250;SDS011;6692;50.710;7.180;2023-12-29T06:16:55;3.70;;;1.87;;
13250;SDS011;6692;50.710;7.180;2023-12-29T06:18:55;3.60;;;2.00;;
13250;SDS011;6692;50.710;7.180;2023-12-29T06:20:56;2.10;;;1.70;;
13250;SDS011;6692;50.710;7.180;2023-12-29T06:22:57;3.57;;;1.93;;
13250;SDS011;6692;50.710;7.180;2023-12-29T06:24:58;2.73;;;1.60;;
13250;SDS011;6692;50.710;7.180;2023-12-29T06:26:59;2.90;;;1.70;;
13250;SDS011;6692;50.710;7.180;2023-12-29T06:28:59;5.73;;;1.83;;
13250;SDS011;6692;50.710;7.180;2023-12-29T06:31:00;1.97;;;1.60;;
13250;SDS011;6692;50.710;7.180;2023-12-29T06:33:01;2.70;;;1.80;;
13250;SDS011;6692;50.710;7.180;2023-12-29T06:35:02;5.40;;;1.70;;
13250;SDS011;6692;50.710;7.180;2023-12-29T06:37:03;3.10;;;1.87;;
13250;SDS011;6692;50.710;7.180;2023-12-29T06:39:04;2.40;;;1.80;;
13250;SDS011;6692;50.710;7.180;2023-12-29T06:41:07;2.70;;;1.97;;
13250;SDS011;6692;50.710;7.180;2023-12-29T06:43:08;2.13;;;1.70;;
13250;SDS011;6692;50.710;7.180;2023-12-29T06:45:10;3.00;;;2.00;;
13250;SDS011;6692;50.710;7.180;2023-12-29T06:47:12;3.60;;;1.80;;
13250;SDS011;6692;50.710;7.180;2023-12-29T06:49:12;1.97;;;1.87;;
13250;SDS011;6692;50.710;7.180;2023-12-29T06:51:16;2.97;;;1.60;;
13250;SDS011;6692;50.710;7.180;2023-12-29T06:53:16;2.80;;;1.70;;
13250;SDS011;6692;50.710;7.180;2023-12-29T06:55:17;1.60;;;1.50;;
13250;SDS011;6692;50.710;7.180;2023-12-29T06:57:18;2.43;;;1.80;;
13250;SDS011;6692;50.710;7.180;2023-12-29T06:59:19;5.43;;;1.93;;
13250;SDS011;6692;50.710;7.180;2023-12-29T07:01:19;1.97;;;1.60;;
13250;SDS011;6692;50.710;7.180;2023-12-29T07:03:20;3.00;;;1.73;;
13250;SDS011;6692;50.710;7.180;2023-12-29T07:05:21;2.77;;;1.90;;
13250;SDS011;6692;50.710;7.180;2023-12-29T07:07:22;2.73;;;1.80;;
13250;SDS011;6692;50.710;7.180;2023-12-29T07:09:22;1.83;;;1.67;;
13250;SDS011;6692;50.710;7.180;2023-12-29T07:11:23;3.00;;;1.70;;
13250;SDS011;6692;50.710;7.180;2023-12-29T07:13:24;4.37;;;1.90;;
13250;SDS011;6692;50.710;7.180;2023-12-29T07:15:24;2.17;;;1.80;;
13250;SDS011;6692;50.710;7.180;2023-12-29T07:17:25;2.60;;;1.67;;
13250;SDS011;6692;50.710;7.180;2023-12-29T07:19:26;4.70;;;2.03;;
13250;SDS011;6692;50.710;7.180;2023-12-29T07:21:27;1.73;;;1.63;;
13250;SDS011;6692;50.710;7.180;2023-12-29T07:23:28;2.23;;;1.60;;
13250;SDS011;6692;50.710;7.180;2023-12-29T07:25:28;4.77;;;1.93;;
13250;SDS011;6692;50.710;7.180;2023-12-29T07:27:30;3.33;;;1.50;;
13250;SDS011;6692;50.710;7.180;2023-12-29T07:29:31;3.80;;;1.60;;
13250;SDS011;6692;50.710;7.180;2023-12-29T07:31:32;3.37;;;2.10;;
13250;SDS011;6692;50.710;7.180;2023-12-29T07:33:33;1.80;;;1.40;;
13250;SDS011;6692;50.710;7.180;2023-12-29T07:35:33;2.10;;;1.70;;
13250;SDS011;6692;50.710;7.180;2023-12-29T07:37:34;1.87;;;1.47;;
13250;SDS011;6692;50.710;7.180;2023-12-29T07:39:36;2.07;;;1.63;;
13250;SDS011;6692;50.710;7.180;2023-12-29T07:41:40;2.13;;;1.60;;
13250;SDS011;6692;50.710;7.180;2023-12-29T07:43:41;2.37;;;1.60;;
13250;SDS011;6692;50.710;7.180;2023-12-29T07:45:42;2.63;;;1.60;;
13250;SDS011;6692;50.710;7.180;2023-12-29T07:47:42;1.90;;;1.60;;
13250;SDS011;6692;50.710;7.180;2023-12-29T07:49:43;1.50;;;1.40;;
13250;SDS011;6692;50.710;7.180;2023-12-29T07:51:44;2.13;;;1.40;;
13250;SDS011;6692;50.710;7.180;2023-12-29T07:53:45;3.03;;;1.63;;
13250;SDS011;6692;50.710;7.180;2023-12-29T07:55:45;2.53;;;1.83;;
13250;SDS011;6692;50.710;7.180;2023-12-29T07:57:47;2.77;;;1.77;;
13250;SDS011;6692;50.710;7.180;2023-12-29T07:59:48;2.27;;;1.67;;
13250;SDS011;6692;50.710;7.180;2023-12-29T08:01:50;1.60;;;1.50;;
13250;SDS011;6692;50.710;7.180;2023-12-29T08:03:51;2.10;;;1.57;;
13250;SDS011;6692;50.710;7.180;2023-12-29T08:05:51;2.27;;;1.60;;
13250;SDS011;6692;50.710;7.180;2023-12-29T08:07:52;4.30;;;1.77;;
13250;SDS011;6692;50.710;7.180;2023-12-29T08:09:53;2.70;;;1.80;;
13250;SDS011;6692;50.710;7.180;2023-12-29T08:11:54;2.17;;;1.47;;
13250;SDS011;6692;50.710;7.180;2023-12-29T08:13:54;2.83;;;1.50;;
13250;SDS011;6692;50.710;7.180;2023-12-29T08:15:56;2.27;;;1.40;;
13250;SDS011;6692;50.710;7.180;2023-12-29T08:17:57;2.40;;;1.57;;
13250;SDS011;6692;50.710;7.180;2023-12-29T08:19:58;1.97;;;1.70;;
13250;SDS011;6692;50.710;7.180;2023-12-29T08:21:59;2.80;;;1.60;;
13250;SDS011;6692;50.710;7.180;2023-12-29T08:24:00;2.20;;;1.50;;
13250;SDS011;6692;50.710;7.180;2023-12-29T08:26:02;2.03;;;1.50;;
13250;SDS011;6692;50.710;7.180;2023-12-29T08:28:02;2.57;;;1.40;;
13250;SDS011;6692;50.710;7.180;2023-12-29T08:30:03;2.33;;;1.53;;
13250;SDS011;6692;50.710;7.180;2023-12-29T08:32:07;3.57;;;1.70;;
13250;SDS011;6692;50.710;7.180;2023-12-29T08:34:06;3.00;;;1.50;;
13250;SDS011;6692;50.710;7.180;2023-12-29T08:36:08;4.53;;;1.60;;
13250;SDS011;6692;50.710;7.180;2023-12-29T08:38:09;2.03;;;1.80;;
13250;SDS011;6692;50.710;7.180;2023-12-29T08:40:10;3.43;;;1.50;;
13250;SDS011;6692;50.710;7.180;2023-12-29T08:42:11;2.50;;;1.40;;
13250;SDS011;6692;50.710;7.180;2023-12-29T08:44:12;2.90;;;1.70;;
13250;SDS011;6692;50.710;7.180;2023-12-29T08:46:12;2.57;;;1.60;;
13250;SDS011;6692;50.710;7.180;2023-12-29T08:48:13;2.23;;;1.50;;
13250;SDS011;6692;50.710;7.180;2023-12-29T08:50:14;3.97;;;1.50;;
13250;SDS011;6692;50.710;7.180;2023-12-29T08:52:15;1.90;;;1.57;;
13250;SDS011;6692;50.710;7.180;2023-12-29T08:54:16;4.03;;;1.70;;
13250;SDS011;6692;50.710;7.180;2023-12-29T08:56:17;2.93;;;1.60;;
13250;SDS011;6692;50.710;7.180;2023-12-29T08:58:17;2.77;;;1.57;;
13250;SDS011;6692;50.710;7.180;2023-12-29T09:00:18;3.33;;;1.57;;
13250;SDS011;6692;50.710;7.180;2023-12-29T09:02:19;1.63;;;1.53;;
13250;SDS011;6692;50.710;7.180;2023-12-29T09:04:20;2.37;;;1.63;;
13250;SDS011;6692;50.710;7.180;2023-12-29T09:06:21;2.07;;;1.60;;
13250;SDS011;6692;50.710;7.180;2023-12-29T09:08:22;2.83;;;1.50;;
13250;SDS011;6692;50.710;7.180;2023-12-29T09:10:23;1.97;;;1.53;;
13250;SDS011;6692;50.710;7.180;2023-12-29T09:12:25;2.00;;;1.37;;
13250;SDS011;6692;50.710;7.180;2023-12-29T09:14:26;2.20;;;1.60;;
13250;SDS011;6692;50.710;7.180;2023-12-29T09:16:27;3.20;;;1.60;;
13250;SDS011;6692;50.710;7.180;2023-12-29T09:18:28;1.80;;;1.50;;
13250;SDS011;6692;50.710;7.180;2023-12-29T09:20:28;2.17;;;1.53;;
13250;SDS011;6692;50.710;7.180;2023-12-29T09:22:29;2.67;;;1.87;;
13250;SDS011;6692;50.710;7.180;2023-12-29T09:24:30;3.00;;;1.60;;
13250;SDS011;6692;50.710;7.180;2023-12-29T09:26:31;2.33;;;1.70;;
13250;SDS011;6692;50.710;7.180;2023-12-29T09:28:32;2.13;;;1.70;;
13250;SDS011;6692;50.710;7.180;2023-12-29T09:30:34;2.00;;;1.60;;
13250;SDS011;6692;50.710;7.180;2023-12-29T09:32:34;1.70;;;1.40;;
13250;SDS011;6692;50.710;7.180;2023-12-29T09:34:35;2.10;;;1.60;;
13250;SDS011;6692;50.710;7.180;2023-12-29T09:36:36;1.70;;;1.30;;
13250;SDS011;6692;50.710;7.180;2023-12-29T09:38:37;1.70;;;1.40;;
13250;SDS011;6692;50.710;7.180;2023-12-29T09:40:37;2.80;;;1.50;;
13250;SDS011;6692;50.710;7.180;2023-12-29T09:42:38;1.97;;;1.50;;
13250;SDS011;6692;50.710;7.180;2023-12-29T09:44:40;1.80;;;1.40;;
13250;SDS011;6692;50.710;7.180;2023-12-29T09:46:41;1.50;;;1.40;;
13250;SDS011;6692;50.710;7.180;2023-12-29T09:48:42;1.33;;;1.23;;
13250;SDS011;6692;50.710;7.180;2023-12-29T09:50:43;1.40;;;1.30;;
13250;SDS011;6692;50.710;7.180;2023-12-29T09:52:43;1.50;;;1.40;;
13250;SDS011;6692;50.710;7.180;2023-12-29T09:54:45;1.40;;;1.30;;
13250;SDS011;6692;50.710;7.180;2023-12-29T09:56:46;2.63;;;1.47;;
13250;SDS011;6692;50.710;7.180;2023-12-29T09:58:47;1.43;;;1.33;;
13250;SDS011;6692;50.710;7.180;2023-12-29T10:00:49;1.40;;;1.23;;
13250;SDS011;6692;50.710;7.180;2023-12-29T10:02:50;1.20;;;1.20;;
13250;SDS011;6692;50.710;7.180;2023-12-29T10:04:50;1.40;;;1.30;;
13250;SDS011;6692;50.710;7.180;2023-12-29T10:06:51;1.60;;;1.40;;
13250;SDS011;6692;50.710;7.180;2023-12-29T10:08:52;2.30;;;1.50;;
13250;SDS011;6692;50.710;7.180;2023-12-29T10:10:53;2.33;;;1.30;;
13250;SDS011;6692;50.710;7.180;2023-12-29T10:12:53;2.20;;;1.43;;
13250;SDS011;6692;50.710;7.180;2023-12-29T10:16:04;1.40;;;1.30;;
13250;SDS011;6692;50.710;7.180;2023-12-29T10:17:19;1.20;;;1.10;;
13250;SDS011;6692;50.710;7.180;2023-12-29T10:19:25;1.57;;;1.20;;
13250;SDS011;6692;50.710;7.180;2023-12-29T10:21:27;1.53;;;1.20;;
13250;SDS011;6692;50.710;7.180;2023-12-29T10:23:28;3.07;;;1.50;;
13250;SDS011;6692;50.710;7.180;2023-12-29T10:25:27;1.23;;;1.13;;
13250;SDS011;6692;50.710;7.180;2023-12-29T10:27:29;1.60;;;1.40;;
13250;SDS011;6692;50.710;7.180;2023-12-29T10:29:30;2.87;;;1.30;;
13250;SDS011;6692;50.710;7.180;2023-12-29T10:31:30;2.50;;;1.20;;
13250;SDS011;6692;50.710;7.180;2023-12-29T10:33:31;1.00;;;1.00;;
13250;SDS011;6692;50.710;7.180;2023-12-29T10:35:32;1.50;;;1.30;;
13250;SDS011;6692;50.710;7.180;2023-12-29T10:37:32;2.17;;;1.50;;
13250;SDS011;6692;50.710;7.180;2023-12-29T10:39:33;1.67;;;1.30;;
13250;SDS011;6692;50.710;7.180;2023-12-29T10:41:34;1.77;;;1.40;;
13250;SDS011;6692;50.710;7.180;2023-12-29T10:43:35;1.40;;;1.30;;
13250;SDS011;6692;50.710;7.180;2023-12-29T10:45:35;2.27;;;1.30;;
13250;SDS011;6692;50.710;7.180;2023-12-29T10:47:37;2.37;;;1.50;;
13250;SDS011;6692;50.710;7.180;2023-12-29T10:49:39;1.57;;;1.30;;
13250;SDS011;6692;50.710;7.180;2023-12-29T10:51:39;1.80;;;1.50;;
13250;SDS011;6692;50.710;7.180;2023-12-29T10:53:40;1.90;;;1.50;;
13250;SDS011;6692;50.710;7.180;2023-12-29T10:55:40;1.37;;;1.27;;
13250;SDS011;6692;50.710;7.180;2023-12-29T10:57:41;2.57;;;1.67;;
13250;SDS011;6692;50.710;7.180;2023-12-29T10:59:43;1.47;;;1.37;;
13250;SDS011;6692;50.710;7.180;2023-12-29T11:01:44;2.13;;;1.23;;
13250;SDS011;6692;50.710;7.180;2023-12-29T11:03:47;2.60;;;1.53;;
13250;SDS011;6692;50.710;7.180;2023-12-29T11:05:45;2.70;;;1.40;;
13250;SDS011;6692;50.710;7.180;2023-12-29T11:07:46;1.80;;;1.20;;
13250;SDS011;6692;50.710;7.180;2023-12-29T11:09:47;1.20;;;1.10;;
13250;SDS011;6692;50.710;7.180;2023-12-29T11:11:48;1.27;;;1.13;;
13250;SDS011;6692;50.710;7.180;2023-12-29T11:13:49;1.73;;;1.20;;
13250;SDS011;6692;50.710;7.180;2023-12-29T11:15:50;1.00;;;1.00;;
13250;SDS011;6692;50.710;7.180;2023-12-29T11:17:51;1.47;;;1.10;;
13250;SDS011;6692;50.710;7.180;2023-12-29T11:19:52;1.40;;;1.30;;
13250;SDS011;6692;50.710;7.180;2023-12-29T11:21:54;1.37;;;1.27;;
13250;SDS011;6692;50.710;7.180;2023-12-29T11:23:55;1.20;;;1.20;;
13250;SDS011;6692;50.710;7.180;2023-12-29T11:25:55;1.30;;;1.20;;
13250;SDS011;6692;50.710;7.180;2023-12-29T11:27:56;1.70;;;1.43;;
13250;SDS011;6692;50.710;7.180;2023-12-29T11:29:58;5.73;;;3.43;;
13250;SDS011;6692;50.710;7.180;2023-12-29T11:31:58;3.00;;;2.50;;
13250;SDS011;6692;50.710;7.180;2023-12-29T11:34:00;2.13;;;1.70;;
13250;SDS011;6692;50.710;7.180;2023-12-29T11:36:03;1.57;;;1.47;;
13250;SDS011;6692;50.710;7.180;2023-12-29T11:40:29;1.40;;;1.30;;
13250;SDS011;6692;50.710;7.180;2023-12-29T11:42:28;1.13;;;1.10;;
13250;SDS011;6692;50.710;7.180;2023-12-29T11:44:28;1.13;;;1.13;;
13250;SDS011;6692;50.710;7.180;2023-12-29T11:46:32;1.10;;;1.10;;
13250;SDS011;6692;50.710;7.180;2023-12-29T11:50:47;1.20;;;1.10;;
13250;SDS011;6692;50.710;7.180;2023-12-29T11:52:47;1.20;;;1.10;;
13250;SDS011;6692;50.710;7.180;2023-12-29T11:54:48;1.20;;;1.20;;
13250;SDS011;6692;50.710;7.180;2023-12-29T11:56:49;1.10;;;1.10;;
13250;SDS011;6692;50.710;7.180;2023-12-29T11:58:49;1.03;;;1.03;;
13250;SDS011;6692;50.710;7.180;2023-12-29T12:00:50;1.73;;;1.10;;
13250;SDS011;6692;50.710;7.180;2023-12-29T12:02:51;1.50;;;1.23;;
13250;SDS011;6692;50.710;7.180;2023-12-29T12:04:51;1.50;;;1.20;;
13250;SDS011;6692;50.710;7.180;2023-12-29T12:06:52;1.10;;;1.10;;
13250;SDS011;6692;50.710;7.180;2023-12-29T12:08:59;1.23;;;1.13;;
13250;SDS011;6692;50.710;7.180;2023-12-29T12:10:54;1.00;;;1.00;;
13250;SDS011;6692;50.710;7.180;2023-12-29T12:12:54;1.40;;;1.30;;
13250;SDS011;6692;50.710;7.180;2023-12-29T12:14:55;1.40;;;1.20;;
13250;SDS011;6692;50.710;7.180;2023-12-29T12:16:56;2.47;;;1.20;;
13250;SDS011;6692;50.710;7.180;2023-12-29T12:18:58;1.27;;;1.20;;
13250;SDS011;6692;50.710;7.180;2023-12-29T12:20:59;1.30;;;1.20;;
13250;SDS011;6692;50.710;7.180;2023-12-29T12:23:01;1.00;;;1.00;;
13250;SDS011;6692;50.710;7.180;2023-12-29T12:25:01;1.20;;;1.20;;
13250;SDS011;6692;50.710;7.180;2023-12-29T12:27:02;1.10;;;1.10;;